sensor_id;sensor_type;location;lat;lon;timestamp;P1;durP1;ratioP1;P2;durP2;ratioP2
58308;SDS011;44117;57.142;24.826;2022-10-16T00:01:23;20.52;;;15.90;;
58308;SDS011;44117;57.142;24.826;2022-10-16T00:03:53;19.25;;;12.60;;
58308;SDS011;44117;57.142;24.826;2022-10-16T00:06:21;23.60;;;14.55;;
58308;SDS011;44117;57.142;24.826;2022-10-16T00:08:50;19.85;;;14.05;;
58308;SDS011;44117;57.142;24.826;2022-10-16T00:11:22;19.38;;;15.82;;
58308;SDS011;44117;57.142;24.826;2022-10-16T00:13:55;22.27;;;14.45;;
58308;SDS011;44117;57.142;24.826;2022-10-16T00:16:24;19.60;;;14.13;;
58308;SDS011;44117;57.142;24.826;2022-10-16T00:18:52;19.10;;;13.93;;
58308;SDS011;44117;57.142;24.826;2022-10-16T00:21:20;20.17;;;14.20;;
58308;SDS011;44117;57.142;24.826;2022-10-16T00:23:50;23.08;;;15.02;;
58308;SDS011;44117;57.142;24.826;2022-10-16T00:26:22;18.92;;;13.85;;
58308;SDS011;44117;57.142;24.826;2022-10-16T00:28:50;20.13;;;16.10;;
58308;SDS011;44117;57.142;24.826;2022-10-16T00:31:19;20.35;;;14.52;;
58308;SDS011;44117;57.142;24.826;2022-10-16T00:33:47;20.33;;;16.08;;
58308;SDS011;44117;57.142;24.826;2022-10-16T00:36:16;20.80;;;15.00;;
58308;SDS011;44117;57.142;24.826;2022-10-16T00:38:45;25.48;;;17.45;;
58308;SDS011;44117;57.142;24.826;2022-10-16T00:41:14;21.42;;;16.77;;
58308;SDS011;44117;57.142;24.826;2022-10-16T00:51:39;24.13;;;16.58;;
58308;SDS011;44117;57.142;24.826;2022-10-16T00:54:28;21.25;;;15.90;;
58308;SDS011;44117;57.142;24.826;2022-10-16T00:56:58;22.27;;;15.82;;
58308;SDS011;44117;57.142;24.826;2022-10-16T00:59:35;25.60;;;16.42;;
58308;SDS011;44117;57.142;24.826;2022-10-16T01:02:05;22.42;;;16.15;;
58308;SDS011;44117;57.142;24.826;2022-10-16T01:04:37;21.55;;;14.25;;
58308;SDS011;44117;57.142;24.826;2022-10-16T01:07:21;22.50;;;15.70;;
58308;SDS011;44117;57.142;24.826;2022-10-16T01:15:25;21.98;;;15.52;;
58308;SDS011;44117;57.142;24.826;2022-10-16T01:20:37;22.30;;;15.93;;
58308;SDS011;44117;57.142;24.826;2022-10-16T01:31:30;22.48;;;14.70;;
58308;SDS011;44117;57.142;24.826;2022-10-16T01:34:02;22.38;;;18.17;;
58308;SDS011;44117;57.142;24.826;2022-10-16T01:36:42;22.08;;;16.42;;
58308;SDS011;44117;57.142;24.826;2022-10-16T01:39:13;23.10;;;16.35;;
58308;SDS011;44117;57.142;24.826;2022-10-16T01:41:46;23.45;;;16.85;;
58308;SDS011;44117;57.142;24.826;2022-10-16T01:44:28;21.75;;;15.98;;
58308;SDS011;44117;57.142;24.826;2022-10-16T01:46:58;22.40;;;17.63;;
58308;SDS011;44117;57.142;24.826;2022-10-16T01:49:27;23.42;;;16.10;;
58308;SDS011;44117;57.142;24.826;2022-10-16T01:51:59;22.52;;;16.40;;
58308;SDS011;44117;57.142;24.826;2022-10-16T01:54:32;24.35;;;15.95;;
58308;SDS011;44117;57.142;24.826;2022-10-16T01:57:03;23.23;;;15.00;;
58308;SDS011;44117;57.142;24.826;2022-10-16T01:59:35;22.73;;;15.50;;
58308;SDS011;44117;57.142;24.826;2022-10-16T02:02:06;23.30;;;16.05;;
58308;SDS011;44117;57.142;24.826;2022-10-16T02:04:40;23.98;;;17.08;;
58308;SDS011;44117;57.142;24.826;2022-10-16T02:07:15;24.30;;;15.85;;
58308;SDS011;44117;57.142;24.826;2022-10-16T02:09:43;22.85;;;17.40;;
58308;SDS011;44117;57.142;24.826;2022-10-16T02:12:14;21.92;;;15.55;;
58308;SDS011;44117;57.142;24.826;2022-10-16T02:14:51;24.02;;;15.35;;
58308;SDS011;44117;57.142;24.826;2022-10-16T02:17:18;23.05;;;15.82;;
58308;SDS011;44117;57.142;24.826;2022-10-16T02:19:46;26.75;;;15.68;;
58308;SDS011;44117;57.142;24.826;2022-10-16T02:22:21;27.08;;;17.95;;
58308;SDS011;44117;57.142;24.826;2022-10-16T02:27:40;22.92;;;15.13;;
58308;SDS011;44117;57.142;24.826;2022-10-16T02:30:11;23.30;;;16.75;;
58308;SDS011;44117;57.142;24.826;2022-10-16T02:32:47;28.90;;;16.00;;
58308;SDS011;44117;57.142;24.826;2022-10-16T02:35:17;28.95;;;19.05;;
58308;SDS011;44117;57.142;24.826;2022-10-16T02:37:46;28.40;;;18.50;;
58308;SDS011;44117;57.142;24.826;2022-10-16T02:40:15;26.40;;;17.33;;
58308;SDS011;44117;57.142;24.826;2022-10-16T02:42:51;25.30;;;19.77;;
58308;SDS011;44117;57.142;24.826;2022-10-16T02:45:19;24.05;;;17.85;;
58308;SDS011;44117;57.142;24.826;2022-10-16T02:47:47;25.52;;;19.98;;
58308;SDS011;44117;57.142;24.826;2022-10-16T02:50:15;25.95;;;19.48;;
58308;SDS011;44117;57.142;24.826;2022-10-16T02:52:42;27.20;;;18.60;;
58308;SDS011;44117;57.142;24.826;2022-10-16T02:55:10;26.95;;;20.75;;
58308;SDS011;44117;57.142;24.826;2022-10-16T02:57:37;28.05;;;20.23;;
58308;SDS011;44117;57.142;24.826;2022-10-16T03:00:08;30.58;;;20.58;;
58308;SDS011;44117;57.142;24.826;2022-10-16T03:02:36;29.15;;;20.67;;
58308;SDS011;44117;57.142;24.826;2022-10-16T03:05:04;29.55;;;21.38;;
58308;SDS011;44117;57.142;24.826;2022-10-16T03:07:31;28.63;;;20.88;;
58308;SDS011;44117;57.142;24.826;2022-10-16T03:09:59;31.40;;;22.70;;
58308;SDS011;44117;57.142;24.826;2022-10-16T03:12:27;30.17;;;21.15;;
58308;SDS011;44117;57.142;24.826;2022-10-16T03:14:55;38.13;;;24.88;;
58308;SDS011;44117;57.142;24.826;2022-10-16T03:17:23;37.58;;;23.05;;
58308;SDS011;44117;57.142;24.826;2022-10-16T03:19:51;34.88;;;24.83;;
58308;SDS011;44117;57.142;24.826;2022-10-16T03:22:19;36.17;;;25.35;;
58308;SDS011;44117;57.142;24.826;2022-10-16T03:24:46;42.80;;;26.67;;
58308;SDS011;44117;57.142;24.826;2022-10-16T03:27:13;36.28;;;22.35;;
58308;SDS011;44117;57.142;24.826;2022-10-16T03:29:40;36.15;;;25.50;;
58308;SDS011;44117;57.142;24.826;2022-10-16T03:32:08;40.83;;;25.10;;
58308;SDS011;44117;57.142;24.826;2022-10-16T03:34:35;43.20;;;28.38;;
58308;SDS011;44117;57.142;24.826;2022-10-16T03:37:02;41.30;;;25.55;;
58308;SDS011;44117;57.142;24.826;2022-10-16T03:39:29;42.67;;;29.38;;
58308;SDS011;44117;57.142;24.826;2022-10-16T03:41:57;43.47;;;27.67;;
58308;SDS011;44117;57.142;24.826;2022-10-16T03:44:24;42.30;;;25.02;;
58308;SDS011;44117;57.142;24.826;2022-10-16T03:46:51;41.55;;;27.30;;
58308;SDS011;44117;57.142;24.826;2022-10-16T03:49:19;40.08;;;27.77;;
58308;SDS011;44117;57.142;24.826;2022-10-16T03:51:46;40.85;;;28.58;;
58308;SDS011;44117;57.142;24.826;2022-10-16T03:54:13;45.85;;;28.58;;
58308;SDS011;44117;57.142;24.826;2022-10-16T03:56:40;40.83;;;28.25;;
58308;SDS011;44117;57.142;24.826;2022-10-16T03:59:07;42.35;;;28.80;;
58308;SDS011;44117;57.142;24.826;2022-10-16T04:01:35;45.17;;;28.98;;
58308;SDS011;44117;57.142;24.826;2022-10-16T04:04:02;45.58;;;28.13;;
58308;SDS011;44117;57.142;24.826;2022-10-16T04:06:30;43.00;;;28.35;;
58308;SDS011;44117;57.142;24.826;2022-10-16T04:08:57;45.90;;;29.73;;
58308;SDS011;44117;57.142;24.826;2022-10-16T04:11:24;48.47;;;30.70;;
58308;SDS011;44117;57.142;24.826;2022-10-16T04:13:51;49.28;;;32.05;;
58308;SDS011;44117;57.142;24.826;2022-10-16T04:16:18;52.75;;;32.78;;
58308;SDS011;44117;57.142;24.826;2022-10-16T04:18:46;49.72;;;32.88;;
58308;SDS011;44117;57.142;24.826;2022-10-16T04:21:13;52.13;;;32.28;;
58308;SDS011;44117;57.142;24.826;2022-10-16T04:23:41;50.65;;;33.60;;
58308;SDS011;44117;57.142;24.826;2022-10-16T04:26:09;56.33;;;36.58;;
58308;SDS011;44117;57.142;24.826;2022-10-16T04:28:36;56.70;;;35.05;;
58308;SDS011;44117;57.142;24.826;2022-10-16T04:31:04;53.50;;;34.08;;
58308;SDS011;44117;57.142;24.826;2022-10-16T04:33:32;63.45;;;44.40;;
58308;SDS011;44117;57.142;24.826;2022-10-16T04:36:00;64.00;;;45.10;;
58308;SDS011;44117;57.142;24.826;2022-10-16T04:38:28;57.75;;;36.05;;
58308;SDS011;44117;57.142;24.826;2022-10-16T04:40:56;60.80;;;40.55;;
58308;SDS011;44117;57.142;24.826;2022-10-16T04:43:23;60.30;;;38.58;;
58308;SDS011;44117;57.142;24.826;2022-10-16T04:45:50;62.47;;;44.97;;
58308;SDS011;44117;57.142;24.826;2022-10-16T04:48:18;57.05;;;36.42;;
58308;SDS011;44117;57.142;24.826;2022-10-16T04:50:45;62.65;;;40.95;;
58308;SDS011;44117;57.142;24.826;2022-10-16T04:53:20;62.45;;;38.80;;
58308;SDS011;44117;57.142;24.826;2022-10-16T04:55:47;65.82;;;42.53;;
58308;SDS011;44117;57.142;24.826;2022-10-16T04:58:14;70.40;;;38.70;;
58308;SDS011;44117;57.142;24.826;2022-10-16T05:00:41;67.22;;;47.33;;
58308;SDS011;44117;57.142;24.826;2022-10-16T05:03:10;66.22;;;41.17;;
58308;SDS011;44117;57.142;24.826;2022-10-16T05:05:41;65.45;;;45.88;;
58308;SDS011;44117;57.142;24.826;2022-10-16T05:08:15;69.63;;;43.60;;
58308;SDS011;44117;57.142;24.826;2022-10-16T05:10:43;66.97;;;41.00;;
58308;SDS011;44117;57.142;24.826;2022-10-16T05:13:11;66.25;;;42.25;;
58308;SDS011;44117;57.142;24.826;2022-10-16T05:15:38;70.25;;;48.47;;
58308;SDS011;44117;57.142;24.826;2022-10-16T05:18:06;74.32;;;39.95;;
58308;SDS011;44117;57.142;24.826;2022-10-16T05:20:33;75.80;;;49.50;;
58308;SDS011;44117;57.142;24.826;2022-10-16T05:23:00;75.05;;;43.35;;
58308;SDS011;44117;57.142;24.826;2022-10-16T05:25:27;88.53;;;50.58;;
58308;SDS011;44117;57.142;24.826;2022-10-16T05:27:55;76.82;;;44.38;;
58308;SDS011;44117;57.142;24.826;2022-10-16T05:30:22;77.07;;;45.42;;
58308;SDS011;44117;57.142;24.826;2022-10-16T05:32:49;74.95;;;50.05;;
58308;SDS011;44117;57.142;24.826;2022-10-16T05:35:17;80.18;;;46.83;;
58308;SDS011;44117;57.142;24.826;2022-10-16T05:37:45;75.88;;;47.28;;
58308;SDS011;44117;57.142;24.826;2022-10-16T05:40:13;75.53;;;44.63;;
58308;SDS011;44117;57.142;24.826;2022-10-16T05:42:41;86.93;;;46.67;;
58308;SDS011;44117;57.142;24.826;2022-10-16T05:45:09;77.90;;;49.40;;
58308;SDS011;44117;57.142;24.826;2022-10-16T05:47:38;83.25;;;50.20;;
58308;SDS011;44117;57.142;24.826;2022-10-16T05:50:06;87.68;;;48.53;;
58308;SDS011;44117;57.142;24.826;2022-10-16T05:52:33;87.40;;;51.85;;
58308;SDS011;44117;57.142;24.826;2022-10-16T05:55:01;83.22;;;52.15;;
58308;SDS011;44117;57.142;24.826;2022-10-16T05:57:28;104.07;;;56.22;;
58308;SDS011;44117;57.142;24.826;2022-10-16T05:59:56;105.75;;;57.78;;
58308;SDS011;44117;57.142;24.826;2022-10-16T06:02:23;107.13;;;52.92;;
58308;SDS011;44117;57.142;24.826;2022-10-16T06:04:53;99.82;;;60.65;;
58308;SDS011;44117;57.142;24.826;2022-10-16T06:07:21;109.03;;;61.33;;
58308;SDS011;44117;57.142;24.826;2022-10-16T06:09:52;122.72;;;67.93;;
58308;SDS011;44117;57.142;24.826;2022-10-16T06:12:19;107.40;;;52.00;;
58308;SDS011;44117;57.142;24.826;2022-10-16T06:14:47;106.95;;;57.65;;
58308;SDS011;44117;57.142;24.826;2022-10-16T06:17:15;105.38;;;60.30;;
58308;SDS011;44117;57.142;24.826;2022-10-16T06:19:42;102.70;;;59.33;;
58308;SDS011;44117;57.142;24.826;2022-10-16T06:22:09;93.88;;;55.40;;
58308;SDS011;44117;57.142;24.826;2022-10-16T06:24:37;99.57;;;55.83;;
58308;SDS011;44117;57.142;24.826;2022-10-16T06:27:04;90.07;;;47.80;;
58308;SDS011;44117;57.142;24.826;2022-10-16T06:29:31;103.00;;;63.97;;
58308;SDS011;44117;57.142;24.826;2022-10-16T06:31:59;102.43;;;59.63;;
58308;SDS011;44117;57.142;24.826;2022-10-16T06:34:26;83.90;;;48.05;;
58308;SDS011;44117;57.142;24.826;2022-10-16T06:36:53;89.88;;;55.47;;
58308;SDS011;44117;57.142;24.826;2022-10-16T06:39:21;116.63;;;74.55;;
58308;SDS011;44117;57.142;24.826;2022-10-16T06:41:49;91.30;;;58.17;;
58308;SDS011;44117;57.142;24.826;2022-10-16T06:44:16;81.38;;;46.90;;
58308;SDS011;44117;57.142;24.826;2022-10-16T06:46:43;90.68;;;56.15;;
58308;SDS011;44117;57.142;24.826;2022-10-16T06:49:10;83.22;;;54.25;;
58308;SDS011;44117;57.142;24.826;2022-10-16T06:51:38;81.82;;;51.17;;
58308;SDS011;44117;57.142;24.826;2022-10-16T06:54:08;85.80;;;54.85;;
58308;SDS011;44117;57.142;24.826;2022-10-16T06:56:36;79.90;;;52.80;;
58308;SDS011;44117;57.142;24.826;2022-10-16T06:59:04;82.13;;;49.17;;
58308;SDS011;44117;57.142;24.826;2022-10-16T07:01:31;85.32;;;52.90;;
58308;SDS011;44117;57.142;24.826;2022-10-16T07:03:59;82.57;;;52.40;;
58308;SDS011;44117;57.142;24.826;2022-10-16T07:06:30;81.00;;;53.92;;
58308;SDS011;44117;57.142;24.826;2022-10-16T07:08:58;91.80;;;57.83;;
58308;SDS011;44117;57.142;24.826;2022-10-16T07:11:29;86.47;;;59.00;;
58308;SDS011;44117;57.142;24.826;2022-10-16T07:13:56;77.45;;;52.20;;
58308;SDS011;44117;57.142;24.826;2022-10-16T07:16:24;80.72;;;52.05;;
58308;SDS011;44117;57.142;24.826;2022-10-16T07:18:54;72.35;;;51.25;;
58308;SDS011;44117;57.142;24.826;2022-10-16T07:21:30;79.05;;;56.08;;
58308;SDS011;44117;57.142;24.826;2022-10-16T07:24:04;73.75;;;51.70;;
58308;SDS011;44117;57.142;24.826;2022-10-16T07:26:34;75.90;;;53.03;;
58308;SDS011;44117;57.142;24.826;2022-10-16T07:29:03;78.57;;;53.45;;
58308;SDS011;44117;57.142;24.826;2022-10-16T07:31:30;76.90;;;53.38;;
58308;SDS011;44117;57.142;24.826;2022-10-16T07:33:59;74.45;;;52.33;;
58308;SDS011;44117;57.142;24.826;2022-10-16T07:36:26;75.72;;;53.92;;
58308;SDS011;44117;57.142;24.826;2022-10-16T07:38:54;72.28;;;54.28;;
58308;SDS011;44117;57.142;24.826;2022-10-16T07:41:26;82.30;;;54.80;;
58308;SDS011;44117;57.142;24.826;2022-10-16T07:43:54;82.25;;;56.97;;
58308;SDS011;44117;57.142;24.826;2022-10-16T07:46:23;76.78;;;56.33;;
58308;SDS011;44117;57.142;24.826;2022-10-16T07:48:51;76.35;;;55.67;;
58308;SDS011;44117;57.142;24.826;2022-10-16T07:51:19;85.82;;;61.95;;
58308;SDS011;44117;57.142;24.826;2022-10-16T07:53:48;79.88;;;55.88;;
58308;SDS011;44117;57.142;24.826;2022-10-16T07:56:16;75.35;;;54.50;;
58308;SDS011;44117;57.142;24.826;2022-10-16T07:58:44;75.15;;;54.58;;
58308;SDS011;44117;57.142;24.826;2022-10-16T08:01:13;77.30;;;55.20;;
58308;SDS011;44117;57.142;24.826;2022-10-16T08:03:42;76.13;;;53.83;;
58308;SDS011;44117;57.142;24.826;2022-10-16T08:06:10;74.68;;;54.45;;
58308;SDS011;44117;57.142;24.826;2022-10-16T08:08:38;74.15;;;54.03;;
58308;SDS011;44117;57.142;24.826;2022-10-16T08:11:05;71.70;;;52.47;;
58308;SDS011;44117;57.142;24.826;2022-10-16T08:13:32;81.18;;;56.88;;
58308;SDS011;44117;57.142;24.826;2022-10-16T08:16:00;76.32;;;53.95;;
58308;SDS011;44117;57.142;24.826;2022-10-16T08:18:28;71.82;;;54.47;;
58308;SDS011;44117;57.142;24.826;2022-10-16T08:20:56;72.18;;;52.80;;
58308;SDS011;44117;57.142;24.826;2022-10-16T08:23:24;71.60;;;52.72;;
58308;SDS011;44117;57.142;24.826;2022-10-16T08:25:53;77.75;;;54.55;;
58308;SDS011;44117;57.142;24.826;2022-10-16T08:28:21;70.93;;;52.97;;
58308;SDS011;44117;57.142;24.826;2022-10-16T08:30:49;75.03;;;54.50;;
58308;SDS011;44117;57.142;24.826;2022-10-16T08:33:16;75.18;;;51.83;;
58308;SDS011;44117;57.142;24.826;2022-10-16T08:35:52;73.72;;;55.45;;
58308;SDS011;44117;57.142;24.826;2022-10-16T08:38:20;75.65;;;52.53;;
58308;SDS011;44117;57.142;24.826;2022-10-16T08:40:48;78.05;;;54.45;;
58308;SDS011;44117;57.142;24.826;2022-10-16T08:43:28;87.60;;;63.42;;
58308;SDS011;44117;57.142;24.826;2022-10-16T08:51:05;79.43;;;61.67;;
58308;SDS011;44117;57.142;24.826;2022-10-16T08:56:24;329.58;;;275.88;;
58308;SDS011;44117;57.142;24.826;2022-10-16T08:58:53;121.72;;;105.32;;
58308;SDS011;44117;57.142;24.826;2022-10-16T09:01:46;103.38;;;83.97;;
58308;SDS011;44117;57.142;24.826;2022-10-16T09:18:40;82.68;;;71.07;;
58308;SDS011;44117;57.142;24.826;2022-10-16T09:21:38;66.57;;;53.58;;
58308;SDS011;44117;57.142;24.826;2022-10-16T09:26:39;57.53;;;47.17;;
58308;SDS011;44117;57.142;24.826;2022-10-16T09:29:08;62.35;;;49.95;;
58308;SDS011;44117;57.142;24.826;2022-10-16T09:31:38;55.78;;;45.53;;
58308;SDS011;44117;57.142;24.826;2022-10-16T09:34:06;66.68;;;53.20;;
58308;SDS011;44117;57.142;24.826;2022-10-16T09:36:45;79.20;;;65.50;;
58308;SDS011;44117;57.142;24.826;2022-10-16T09:39:13;79.50;;;56.70;;
58308;SDS011;44117;57.142;24.826;2022-10-16T09:41:41;65.68;;;51.20;;
58308;SDS011;44117;57.142;24.826;2022-10-16T09:44:18;61.50;;;46.95;;
58308;SDS011;44117;57.142;24.826;2022-10-16T09:47:03;60.60;;;47.53;;
58308;SDS011;44117;57.142;24.826;2022-10-16T09:49:32;62.92;;;48.67;;
58308;SDS011;44117;57.142;24.826;2022-10-16T09:52:09;66.50;;;51.33;;
58308;SDS011;44117;57.142;24.826;2022-10-16T09:54:52;60.95;;;47.75;;
58308;SDS011;44117;57.142;24.826;2022-10-16T09:57:20;63.92;;;50.45;;
58308;SDS011;44117;57.142;24.826;2022-10-16T09:59:49;61.92;;;46.53;;
58308;SDS011;44117;57.142;24.826;2022-10-16T10:02:30;61.00;;;48.60;;
58308;SDS011;44117;57.142;24.826;2022-10-16T10:04:58;62.85;;;49.08;;
58308;SDS011;44117;57.142;24.826;2022-10-16T10:07:35;62.28;;;46.47;;
58308;SDS011;44117;57.142;24.826;2022-10-16T10:10:19;61.00;;;41.15;;
58308;SDS011;44117;57.142;24.826;2022-10-16T10:12:49;59.35;;;48.30;;
58308;SDS011;44117;57.142;24.826;2022-10-16T10:15:16;60.72;;;46.20;;
58308;SDS011;44117;57.142;24.826;2022-10-16T10:17:48;61.75;;;48.10;;
58308;SDS011;44117;57.142;24.826;2022-10-16T10:20:28;88.15;;;61.53;;
58308;SDS011;44117;57.142;24.826;2022-10-16T10:22:59;79.63;;;54.47;;
58308;SDS011;44117;57.142;24.826;2022-10-16T10:38:54;62.10;;;48.53;;
58308;SDS011;44117;57.142;24.826;2022-10-16T10:47:01;60.78;;;43.92;;
58308;SDS011;44117;57.142;24.826;2022-10-16T10:55:19;63.63;;;47.85;;
58308;SDS011;44117;57.142;24.826;2022-10-16T11:06:52;65.53;;;45.90;;
58308;SDS011;44117;57.142;24.826;2022-10-16T11:12:38;57.45;;;42.33;;
58308;SDS011;44117;57.142;24.826;2022-10-16T11:17:47;58.15;;;44.47;;
58308;SDS011;44117;57.142;24.826;2022-10-16T11:20:32;61.70;;;46.67;;
58308;SDS011;44117;57.142;24.826;2022-10-16T11:23:25;58.60;;;42.65;;
58308;SDS011;44117;57.142;24.826;2022-10-16T11:26:14;54.00;;;41.10;;
58308;SDS011;44117;57.142;24.826;2022-10-16T11:28:51;57.90;;;43.70;;
58308;SDS011;44117;57.142;24.826;2022-10-16T11:31:24;52.75;;;40.67;;
58308;SDS011;44117;57.142;24.826;2022-10-16T11:45:52;51.25;;;40.67;;
58308;SDS011;44117;57.142;24.826;2022-10-16T11:48:46;56.95;;;40.80;;
58308;SDS011;44117;57.142;24.826;2022-10-16T11:51:21;52.05;;;37.70;;
58308;SDS011;44117;57.142;24.826;2022-10-16T11:57:14;49.72;;;38.78;;
58308;SDS011;44117;57.142;24.826;2022-10-16T11:59:55;51.78;;;40.17;;
58308;SDS011;44117;57.142;24.826;2022-10-16T12:02:32;50.30;;;36.30;;
58308;SDS011;44117;57.142;24.826;2022-10-16T12:05:03;48.88;;;38.50;;
58308;SDS011;44117;57.142;24.826;2022-10-16T12:07:36;49.88;;;37.53;;
58308;SDS011;44117;57.142;24.826;2022-10-16T12:10:17;45.88;;;37.13;;
58308;SDS011;44117;57.142;24.826;2022-10-16T12:12:53;44.67;;;35.35;;
58308;SDS011;44117;57.142;24.826;2022-10-16T12:18:25;52.45;;;40.08;;
58308;SDS011;44117;57.142;24.826;2022-10-16T12:20:58;47.88;;;38.70;;
58308;SDS011;44117;57.142;24.826;2022-10-16T12:23:32;45.42;;;35.63;;
58308;SDS011;44117;57.142;24.826;2022-10-16T12:26:14;51.03;;;37.38;;
58308;SDS011;44117;57.142;24.826;2022-10-16T12:31:53;45.63;;;37.13;;
58308;SDS011;44117;57.142;24.826;2022-10-16T12:34:42;48.55;;;36.47;;
58308;SDS011;44117;57.142;24.826;2022-10-16T12:39:58;52.00;;;39.72;;
58308;SDS011;44117;57.142;24.826;2022-10-16T12:42:37;46.35;;;36.95;;
58308;SDS011;44117;57.142;24.826;2022-10-16T12:48:17;104.72;;;87.13;;
58308;SDS011;44117;57.142;24.826;2022-10-16T12:51:08;63.38;;;54.65;;
58308;SDS011;44117;57.142;24.826;2022-10-16T12:54:04;53.42;;;44.40;;
58308;SDS011;44117;57.142;24.826;2022-10-16T12:59:21;78.90;;;70.20;;
58308;SDS011;44117;57.142;24.826;2022-10-16T13:10:28;53.90;;;45.10;;
58308;SDS011;44117;57.142;24.826;2022-10-16T13:18:38;44.72;;;37.00;;
58308;SDS011;44117;57.142;24.826;2022-10-16T13:24:23;54.85;;;40.15;;
58308;SDS011;44117;57.142;24.826;2022-10-16T13:33:02;52.97;;;41.30;;
58308;SDS011;44117;57.142;24.826;2022-10-16T13:38:15;60.53;;;45.05;;
58308;SDS011;44117;57.142;24.826;2022-10-16T13:40:54;56.45;;;40.90;;
58308;SDS011;44117;57.142;24.826;2022-10-16T13:43:23;55.20;;;42.78;;
58308;SDS011;44117;57.142;24.826;2022-10-16T13:45:56;57.15;;;44.53;;
58308;SDS011;44117;57.142;24.826;2022-10-16T13:48:34;55.38;;;42.58;;
58308;SDS011;44117;57.142;24.826;2022-10-16T13:51:15;55.08;;;41.45;;
58308;SDS011;44117;57.142;24.826;2022-10-16T13:53:44;58.78;;;44.33;;
58308;SDS011;44117;57.142;24.826;2022-10-16T13:56:14;58.92;;;43.85;;
58308;SDS011;44117;57.142;24.826;2022-10-16T13:58:44;57.83;;;42.60;;
58308;SDS011;44117;57.142;24.826;2022-10-16T14:03:46;63.47;;;45.00;;
58308;SDS011;44117;57.142;24.826;2022-10-16T14:06:15;61.38;;;44.72;;
58308;SDS011;44117;57.142;24.826;2022-10-16T14:08:59;63.38;;;48.92;;
58308;SDS011;44117;57.142;24.826;2022-10-16T14:11:27;60.15;;;45.80;;
58308;SDS011;44117;57.142;24.826;2022-10-16T14:13:56;58.55;;;45.40;;
58308;SDS011;44117;57.142;24.826;2022-10-16T14:16:27;57.38;;;42.60;;
58308;SDS011;44117;57.142;24.826;2022-10-16T14:19:00;61.30;;;45.15;;
58308;SDS011;44117;57.142;24.826;2022-10-16T14:21:30;57.50;;;41.40;;
58308;SDS011;44117;57.142;24.826;2022-10-16T14:23:58;55.95;;;42.90;;
58308;SDS011;44117;57.142;24.826;2022-10-16T14:26:26;60.65;;;44.83;;
58308;SDS011;44117;57.142;24.826;2022-10-16T14:29:01;109.88;;;78.82;;
58308;SDS011;44117;57.142;24.826;2022-10-16T14:31:37;56.20;;;45.28;;
58308;SDS011;44117;57.142;24.826;2022-10-16T14:34:25;53.45;;;43.60;;
58308;SDS011;44117;57.142;24.826;2022-10-16T14:37:09;59.88;;;46.20;;
58308;SDS011;44117;57.142;24.826;2022-10-16T14:39:41;55.92;;;43.15;;
58308;SDS011;44117;57.142;24.826;2022-10-16T14:42:14;60.45;;;44.15;;
58308;SDS011;44117;57.142;24.826;2022-10-16T14:44:45;55.83;;;45.20;;
58308;SDS011;44117;57.142;24.826;2022-10-16T14:47:15;56.78;;;44.88;;
58308;SDS011;44117;57.142;24.826;2022-10-16T14:49:48;57.33;;;43.80;;
58308;SDS011;44117;57.142;24.826;2022-10-16T14:52:16;57.13;;;46.67;;
58308;SDS011;44117;57.142;24.826;2022-10-16T14:54:47;58.92;;;46.63;;
58308;SDS011;44117;57.142;24.826;2022-10-16T14:57:16;59.60;;;45.78;;
58308;SDS011;44117;57.142;24.826;2022-10-16T14:59:45;60.55;;;49.13;;
58308;SDS011;44117;57.142;24.826;2022-10-16T15:02:30;60.53;;;49.72;;
58308;SDS011;44117;57.142;24.826;2022-10-16T15:05:10;61.47;;;49.28;;
58308;SDS011;44117;57.142;24.826;2022-10-16T15:07:46;55.30;;;45.42;;
58308;SDS011;44117;57.142;24.826;2022-10-16T15:10:17;53.70;;;46.25;;
58308;SDS011;44117;57.142;24.826;2022-10-16T15:12:45;65.43;;;50.47;;
58308;SDS011;44117;57.142;24.826;2022-10-16T15:17:44;58.55;;;47.25;;
58308;SDS011;44117;57.142;24.826;2022-10-16T15:20:11;61.38;;;49.58;;
58308;SDS011;44117;57.142;24.826;2022-10-16T15:22:39;70.15;;;59.92;;
58308;SDS011;44117;57.142;24.826;2022-10-16T15:25:29;54.72;;;48.42;;
58308;SDS011;44117;57.142;24.826;2022-10-16T15:27:59;66.68;;;53.10;;
58308;SDS011;44117;57.142;24.826;2022-10-16T15:30:27;64.60;;;51.47;;
58308;SDS011;44117;57.142;24.826;2022-10-16T15:32:55;57.92;;;48.40;;
58308;SDS011;44117;57.142;24.826;2022-10-16T15:35:22;62.95;;;50.72;;
58308;SDS011;44117;57.142;24.826;2022-10-16T15:37:49;64.82;;;52.38;;
58308;SDS011;44117;57.142;24.826;2022-10-16T15:40:17;60.58;;;50.42;;
58308;SDS011;44117;57.142;24.826;2022-10-16T15:42:45;62.58;;;54.72;;
58308;SDS011;44117;57.142;24.826;2022-10-16T15:45:13;59.33;;;49.22;;
58308;SDS011;44117;57.142;24.826;2022-10-16T15:47:41;52.40;;;45.22;;
58308;SDS011;44117;57.142;24.826;2022-10-16T15:50:12;60.00;;;50.85;;
58308;SDS011;44117;57.142;24.826;2022-10-16T15:52:41;63.53;;;53.90;;
58308;SDS011;44117;57.142;24.826;2022-10-16T15:55:09;58.28;;;50.17;;
58308;SDS011;44117;57.142;24.826;2022-10-16T15:57:38;58.75;;;49.05;;
58308;SDS011;44117;57.142;24.826;2022-10-16T16:00:17;54.53;;;47.22;;
58308;SDS011;44117;57.142;24.826;2022-10-16T16:05:20;54.17;;;44.85;;
58308;SDS011;44117;57.142;24.826;2022-10-16T16:07:48;60.08;;;48.75;;
58308;SDS011;44117;57.142;24.826;2022-10-16T16:10:16;54.50;;;46.25;;
58308;SDS011;44117;57.142;24.826;2022-10-16T16:12:45;65.28;;;50.35;;
58308;SDS011;44117;57.142;24.826;2022-10-16T16:15:21;56.35;;;45.83;;
58308;SDS011;44117;57.142;24.826;2022-10-16T16:17:49;54.85;;;45.05;;
58308;SDS011;44117;57.142;24.826;2022-10-16T16:20:16;59.38;;;47.65;;
58308;SDS011;44117;57.142;24.826;2022-10-16T16:22:43;53.53;;;44.55;;
58308;SDS011;44117;57.142;24.826;2022-10-16T16:25:10;46.92;;;39.75;;
58308;SDS011;44117;57.142;24.826;2022-10-16T16:27:38;48.45;;;41.72;;
58308;SDS011;44117;57.142;24.826;2022-10-16T16:30:06;48.35;;;39.65;;
58308;SDS011;44117;57.142;24.826;2022-10-16T16:32:34;42.72;;;36.40;;
58308;SDS011;44117;57.142;24.826;2022-10-16T16:35:04;44.05;;;38.95;;
58308;SDS011;44117;57.142;24.826;2022-10-16T16:37:32;40.13;;;34.63;;
58308;SDS011;44117;57.142;24.826;2022-10-16T16:39:59;40.13;;;35.25;;
58308;SDS011;44117;57.142;24.826;2022-10-16T16:42:27;37.78;;;33.63;;
58308;SDS011;44117;57.142;24.826;2022-10-16T16:44:54;40.00;;;35.63;;
58308;SDS011;44117;57.142;24.826;2022-10-16T16:47:21;39.20;;;34.90;;
58308;SDS011;44117;57.142;24.826;2022-10-16T16:49:49;42.05;;;35.80;;
58308;SDS011;44117;57.142;24.826;2022-10-16T16:52:17;41.00;;;36.55;;
58308;SDS011;44117;57.142;24.826;2022-10-16T16:54:44;42.28;;;36.72;;
58308;SDS011;44117;57.142;24.826;2022-10-16T16:57:18;50.33;;;41.63;;
58308;SDS011;44117;57.142;24.826;2022-10-16T16:59:46;55.55;;;49.35;;
58308;SDS011;44117;57.142;24.826;2022-10-16T17:02:16;46.33;;;40.65;;
58308;SDS011;44117;57.142;24.826;2022-10-16T17:04:43;49.47;;;42.42;;